sensor_id;sensor_type;location;lat;lon;timestamp;pressure;altitude;pressure_sealevel;temperature;humidity
59170;BME280;52474;52.236;5.114;2022-08-03T00:01:34;101538.66;;;18.13;100.00
59170;BME280;52474;52.236;5.114;2022-08-03T00:04:00;101543.50;;;18.09;100.00
59170;BME280;52474;52.236;5.114;2022-08-03T00:06:26;101540.28;;;18.06;100.00
59170;BME280;52474;52.236;5.114;2022-08-03T00:08:52;101548.34;;;18.06;100.00
59170;BME280;52474;52.236;5.114;2022-08-03T00:11:18;101554.19;;;18.01;100.00
59170;BME280;52474;52.236;5.114;2022-08-03T00:13:43;101551.69;;;17.99;100.00
59170;BME280;52474;52.236;5.114;2022-08-03T00:16:10;101539.75;;;17.94;100.00
59170;BME280;52474;52.236;5.114;2022-08-03T00:18:38;101547.13;;;17.92;100.00
59170;BME280;52474;52.236;5.114;2022-08-03T00:21:04;101551.97;;;17.88;100.00
59170;BME280;52474;52.236;5.114;2022-08-03T00:23:30;101532.63;;;17.76;100.00
59170;BME280;52474;52.236;5.114;2022-08-03T00:25:56;101523.06;;;17.74;100.00
59170;BME280;52474;52.236;5.114;2022-08-03T00:28:22;101550.94;;;17.89;100.00
59170;BME280;52474;52.236;5.114;2022-08-03T00:30:47;101533.19;;;17.80;100.00
59170;BME280;52474;52.236;5.114;2022-08-03T00:33:13;101541.78;;;17.92;100.00
59170;BME280;52474;52.236;5.114;2022-08-03T00:35:39;101544.63;;;17.98;100.00
59170;BME280;52474;52.236;5.114;2022-08-03T00:38:04;101552.34;;;18.01;100.00
59170;BME280;52474;52.236;5.114;2022-08-03T00:40:31;101540.78;;;18.01;100.00
59170;BME280;52474;52.236;5.114;2022-08-03T00:42:59;101543.66;;;18.16;100.00
59170;BME280;52474;52.236;5.114;2022-08-03T00:45:27;101547.38;;;18.23;100.00
59170;BME280;52474;52.236;5.114;2022-08-03T00:47:54;101543.22;;;18.29;100.00
59170;BME280;52474;52.236;5.114;2022-08-03T00:50:22;101546.06;;;18.35;100.00
59170;BME280;52474;52.236;5.114;2022-08-03T00:52:51;101547.09;;;18.42;100.00
59170;BME280;52474;52.236;5.114;2022-08-03T00:55:17;101522.09;;;18.42;100.00
59170;BME280;52474;52.236;5.114;2022-08-03T00:57:43;101528.00;;;18.54;100.00
59170;BME280;52474;52.236;5.114;2022-08-03T01:00:11;101533.50;;;18.60;100.00
59170;BME280;52474;52.236;5.114;2022-08-03T01:02:38;101529.84;;;18.61;100.00
59170;BME280;52474;52.236;5.114;2022-08-03T01:05:05;101509.03;;;18.47;100.00
59170;BME280;52474;52.236;5.114;2022-08-03T01:13:02;101523.13;;;18.57;100.00
59170;BME280;52474;52.236;5.114;2022-08-03T01:15:41;101504.31;;;18.41;100.00
59170;BME280;52474;52.236;5.114;2022-08-03T01:18:17;101525.31;;;18.54;100.00
59170;BME280;52474;52.236;5.114;2022-08-03T01:20:47;101501.31;;;18.36;100.00
59170;BME280;52474;52.236;5.114;2022-08-03T01:31:25;101519.72;;;18.14;100.00
59170;BME280;52474;52.236;5.114;2022-08-03T01:33:56;101498.72;;;18.01;100.00
59170;BME280;52474;52.236;5.114;2022-08-03T01:36:30;101504.28;;;18.08;100.00
59170;BME280;52474;52.236;5.114;2022-08-03T01:39:02;101511.50;;;18.16;100.00
59170;BME280;52474;52.236;5.114;2022-08-03T01:41:36;101522.91;;;18.10;100.00
59170;BME280;52474;52.236;5.114;2022-08-03T01:44:07;101509.28;;;17.95;100.00
59170;BME280;52474;52.236;5.114;2022-08-03T01:46:33;101521.66;;;17.96;100.00
59170;BME280;52474;52.236;5.114;2022-08-03T01:48:59;101503.53;;;17.81;100.00
59170;BME280;52474;52.236;5.114;2022-08-03T01:51:27;101503.00;;;17.78;100.00
59170;BME280;52474;52.236;5.114;2022-08-03T01:53:53;101518.28;;;17.86;100.00
59170;BME280;52474;52.236;5.114;2022-08-03T01:56:22;101518.94;;;17.79;100.00
59170;BME280;52474;52.236;5.114;2022-08-03T01:58:50;101510.34;;;17.76;100.00
59170;BME280;52474;52.236;5.114;2022-08-03T02:01:18;101505.84;;;17.76;100.00
59170;BME280;52474;52.236;5.114;2022-08-03T02:03:45;101492.41;;;17.68;100.00
59170;BME280;52474;52.236;5.114;2022-08-03T02:06:14;101511.56;;;17.81;100.00
59170;BME280;52474;52.236;5.114;2022-08-03T02:08:42;101509.78;;;17.90;100.00
59170;BME280;52474;52.236;5.114;2022-08-03T02:11:09;101500.22;;;17.96;100.00
59170;BME280;52474;52.236;5.114;2022-08-03T02:13:37;101509.69;;;18.16;100.00
59170;BME280;52474;52.236;5.114;2022-08-03T02:16:04;101505.84;;;18.19;100.00
59170;BME280;52474;52.236;5.114;2022-08-03T02:18:33;101507.34;;;18.21;100.00
59170;BME280;52474;52.236;5.114;2022-08-03T02:21:00;101506.00;;;18.26;100.00
59170;BME280;52474;52.236;5.114;2022-08-03T02:23:29;101506.00;;;18.26;100.00
59170;BME280;52474;52.236;5.114;2022-08-03T02:26:01;101512.03;;;18.28;100.00
59170;BME280;52474;52.236;5.114;2022-08-03T02:28:35;101509.69;;;18.24;100.00
59170;BME280;52474;52.236;5.114;2022-08-03T02:31:04;101500.09;;;18.14;100.00
59170;BME280;52474;52.236;5.114;2022-08-03T02:33:43;101499.41;;;18.03;100.00
59170;BME280;52474;52.236;5.114;2022-08-03T02:36:12;101494.19;;;17.94;100.00
59170;BME280;52474;52.236;5.114;2022-08-03T02:38:41;101498.38;;;17.88;100.00
59170;BME280;52474;52.236;5.114;2022-08-03T02:41:14;101498.69;;;17.85;100.00
59170;BME280;52474;52.236;5.114;2022-08-03T02:43:42;101500.16;;;17.79;100.00
59170;BME280;52474;52.236;5.114;2022-08-03T02:46:12;101494.13;;;17.77;100.00
59170;BME280;52474;52.236;5.114;2022-08-03T02:48:40;101479.34;;;17.65;100.00
59170;BME280;52474;52.236;5.114;2022-08-03T02:51:07;101489.75;;;17.68;100.00
59170;BME280;52474;52.236;5.114;2022-08-03T02:53:34;101477.31;;;17.59;100.00
59170;BME280;52474;52.236;5.114;2022-08-03T02:56:01;101482.38;;;17.70;100.00
59170;BME280;52474;52.236;5.114;2022-08-03T02:58:30;101485.69;;;17.64;100.00
59170;BME280;52474;52.236;5.114;2022-08-03T03:00:57;101464.41;;;17.54;100.00
59170;BME280;52474;52.236;5.114;2022-08-03T03:03:24;101485.75;;;17.72;100.00
59170;BME280;52474;52.236;5.114;2022-08-03T03:05:50;101459.78;;;17.65;100.00
59170;BME280;52474;52.236;5.114;2022-08-03T03:08:18;101472.69;;;17.77;100.00
59170;BME280;52474;52.236;5.114;2022-08-03T03:10:44;101477.47;;;17.92;100.00
59170;BME280;52474;52.236;5.114;2022-08-03T03:13:12;101480.97;;;18.00;100.00
59170;BME280;52474;52.236;5.114;2022-08-03T03:15:39;101463.88;;;18.01;100.00
59170;BME280;52474;52.236;5.114;2022-08-03T03:18:06;101476.84;;;18.14;100.00
59170;BME280;52474;52.236;5.114;2022-08-03T03:20:35;101486.38;;;18.17;100.00
59170;BME280;52474;52.236;5.114;2022-08-03T03:23:02;101480.69;;;18.20;100.00
59170;BME280;52474;52.236;5.114;2022-08-03T03:25:30;101481.03;;;18.17;100.00
59170;BME280;52474;52.236;5.114;2022-08-03T03:27:58;101469.63;;;18.07;100.00
59170;BME280;52474;52.236;5.114;2022-08-03T03:30:25;101471.09;;;18.01;100.00
59170;BME280;52474;52.236;5.114;2022-08-03T03:32:51;101483.53;;;18.10;100.00
59170;BME280;52474;52.236;5.114;2022-08-03T03:35:17;101486.34;;;18.09;100.00
59170;BME280;52474;52.236;5.114;2022-08-03T03:37:43;101483.81;;;17.99;100.00
59170;BME280;52474;52.236;5.114;2022-08-03T03:40:09;101482.50;;;17.95;100.00
59170;BME280;52474;52.236;5.114;2022-08-03T03:42:35;101482.63;;;17.93;100.00
59170;BME280;52474;52.236;5.114;2022-08-03T03:45:06;101481.47;;;17.96;100.00
59170;BME280;52474;52.236;5.114;2022-08-03T03:47:35;101470.06;;;17.86;100.00
59170;BME280;52474;52.236;5.114;2022-08-03T03:50:03;101485.16;;;17.95;100.00
59170;BME280;52474;52.236;5.114;2022-08-03T03:52:30;101477.81;;;17.97;100.00
59170;BME280;52474;52.236;5.114;2022-08-03T03:54:56;101478.78;;;17.96;100.00
59170;BME280;52474;52.236;5.114;2022-08-03T03:57:22;101482.16;;;17.90;100.00
59170;BME280;52474;52.236;5.114;2022-08-03T03:59:48;101463.34;;;17.81;100.00
59170;BME280;52474;52.236;5.114;2022-08-03T04:02:13;101469.84;;;17.79;100.00
59170;BME280;52474;52.236;5.114;2022-08-03T04:04:39;101462.66;;;17.79;100.00
59170;BME280;52474;52.236;5.114;2022-08-03T04:07:25;101481.63;;;17.86;100.00
59170;BME280;52474;52.236;5.114;2022-08-03T04:10:30;101490.19;;;17.90;100.00
59170;BME280;52474;52.236;5.114;2022-08-03T04:13:17;101490.53;;;17.95;100.00
59170;BME280;52474;52.236;5.114;2022-08-03T04:15:46;101468.22;;;17.86;100.00
59170;BME280;52474;52.236;5.114;2022-08-03T04:18:13;101481.97;;;17.91;100.00
59170;BME280;52474;52.236;5.114;2022-08-03T04:20:43;101487.34;;;17.99;100.00
59170;BME280;52474;52.236;5.114;2022-08-03T04:23:10;101479.28;;;17.91;100.00
59170;BME280;52474;52.236;5.114;2022-08-03T04:25:39;101469.25;;;17.93;100.00
59170;BME280;52474;52.236;5.114;2022-08-03T04:28:06;101486.34;;;18.09;100.00
59170;BME280;52474;52.236;5.114;2022-08-03T04:30:35;101483.84;;;18.07;100.00
59170;BME280;52474;52.236;5.114;2022-08-03T04:33:02;101487.38;;;18.08;100.00
59170;BME280;52474;52.236;5.114;2022-08-03T04:35:30;101494.25;;;18.10;100.00
59170;BME280;52474;52.236;5.114;2022-08-03T04:38:00;101479.13;;;18.01;100.00
59170;BME280;52474;52.236;5.114;2022-08-03T04:40:29;101488.88;;;18.10;100.00
59170;BME280;52474;52.236;5.114;2022-08-03T04:42:57;101477.13;;;18.11;100.00
59170;BME280;52474;52.236;5.114;2022-08-03T04:45:27;101498.78;;;18.26;100.00
59170;BME280;52474;52.236;5.114;2022-08-03T04:47:55;101501.97;;;18.30;100.00
59170;BME280;52474;52.236;5.114;2022-08-03T04:50:21;101508.69;;;18.34;100.00
59170;BME280;52474;52.236;5.114;2022-08-03T04:53:04;101503.50;;;18.32;100.00
59170;BME280;52474;52.236;5.114;2022-08-03T04:55:31;101508.69;;;18.34;100.00
59170;BME280;52474;52.236;5.114;2022-08-03T04:57:58;101507.69;;;18.35;100.00
59170;BME280;52474;52.236;5.114;2022-08-03T05:00:25;101496.28;;;18.33;100.00
59170;BME280;52474;52.236;5.114;2022-08-03T05:02:51;101514.41;;;18.55;100.00
59170;BME280;52474;52.236;5.114;2022-08-03T05:05:18;101497.63;;;18.53;100.00
59170;BME280;52474;52.236;5.114;2022-08-03T05:07:44;101507.84;;;18.58;100.00
59170;BME280;52474;52.236;5.114;2022-08-03T05:10:11;101494.78;;;18.55;100.00
59170;BME280;52474;52.236;5.114;2022-08-03T05:12:37;101522.13;;;18.66;100.00
59170;BME280;52474;52.236;5.114;2022-08-03T05:15:03;101499.81;;;18.58;100.00
59170;BME280;52474;52.236;5.114;2022-08-03T05:17:29;101512.75;;;18.79;100.00
59170;BME280;52474;52.236;5.114;2022-08-03T05:19:55;101523.47;;;18.87;100.00
59170;BME280;52474;52.236;5.114;2022-08-03T05:22:22;101520.63;;;18.97;100.00
59170;BME280;52474;52.236;5.114;2022-08-03T05:24:47;101523.16;;;18.98;100.00
59170;BME280;52474;52.236;5.114;2022-08-03T05:27:13;101512.22;;;19.00;100.00
59170;BME280;52474;52.236;5.114;2022-08-03T05:29:48;101518.41;;;19.25;100.00
59170;BME280;52474;52.236;5.114;2022-08-03T05:32:15;101508.50;;;19.25;100.00
59170;BME280;52474;52.236;5.114;2022-08-03T05:34:42;101524.22;;;19.45;100.00
59170;BME280;52474;52.236;5.114;2022-08-03T05:37:08;101514.31;;;19.45;100.00
59170;BME280;52474;52.236;5.114;2022-08-03T05:39:34;101503.56;;;19.45;100.00
59170;BME280;52474;52.236;5.114;2022-08-03T05:42:01;101518.28;;;19.58;100.00
59170;BME280;52474;52.236;5.114;2022-08-03T05:44:27;101520.28;;;19.64;100.00
59170;BME280;52474;52.236;5.114;2022-08-03T05:46:53;101516.13;;;19.53;100.00
59170;BME280;52474;52.236;5.114;2022-08-03T05:49:19;101497.38;;;19.45;100.00
59170;BME280;52474;52.236;5.114;2022-08-03T05:51:45;101519.63;;;19.70;100.00
59170;BME280;52474;52.236;5.114;2022-08-03T05:54:11;101494.41;;;19.79;100.00
59170;BME280;52474;52.236;5.114;2022-08-03T05:56:37;101495.53;;;19.85;100.00
59170;BME280;52474;52.236;5.114;2022-08-03T05:59:02;101512.78;;;19.99;100.00
59170;BME280;52474;52.236;5.114;2022-08-03T06:01:28;101498.53;;;20.13;100.00
59170;BME280;52474;52.236;5.114;2022-08-03T06:03:56;101505.53;;;20.45;100.00
59170;BME280;52474;52.236;5.114;2022-08-03T06:06:22;101509.63;;;20.41;100.00
59170;BME280;52474;52.236;5.114;2022-08-03T06:08:47;101490.59;;;20.43;100.00
59170;BME280;52474;52.236;5.114;2022-08-03T06:11:13;101483.13;;;20.76;100.00
59170;BME280;52474;52.236;5.114;2022-08-03T06:13:39;101487.06;;;20.88;100.00
59170;BME280;52474;52.236;5.114;2022-08-03T06:16:05;101497.44;;;20.91;100.00
59170;BME280;52474;52.236;5.114;2022-08-03T06:18:31;101499.88;;;21.01;100.00
59170;BME280;52474;52.236;5.114;2022-08-03T06:20:57;101495.97;;;20.89;100.00
59170;BME280;52474;52.236;5.114;2022-08-03T06:23:22;101496.75;;;21.12;100.00
59170;BME280;52474;52.236;5.114;2022-08-03T06:25:48;101494.13;;;21.04;100.00
59170;BME280;52474;52.236;5.114;2022-08-03T06:28:14;101498.03;;;21.31;100.00
59170;BME280;52474;52.236;5.114;2022-08-03T06:30:40;101492.75;;;21.53;100.00
59170;BME280;52474;52.236;5.114;2022-08-03T06:33:06;101483.75;;;21.97;100.00
59170;BME280;52474;52.236;5.114;2022-08-03T06:35:32;101473.19;;;25.19;100.00
59170;BME280;52474;52.236;5.114;2022-08-03T06:37:57;101485.09;;;23.22;100.00
59170;BME280;52474;52.236;5.114;2022-08-03T06:40:23;101492.16;;;25.25;100.00
59170;BME280;52474;52.236;5.114;2022-08-03T06:42:56;101473.19;;;25.05;100.00
59170;BME280;52474;52.236;5.114;2022-08-03T06:45:22;101486.50;;;23.59;100.00
59170;BME280;52474;52.236;5.114;2022-08-03T06:47:59;101490.75;;;24.56;100.00
59170;BME280;52474;52.236;5.114;2022-08-03T06:50:25;101480.50;;;23.64;100.00
59170;BME280;52474;52.236;5.114;2022-08-03T06:52:51;101480.13;;;24.68;100.00
59170;BME280;52474;52.236;5.114;2022-08-03T06:55:16;101491.97;;;23.66;100.00
59170;BME280;52474;52.236;5.114;2022-08-03T06:57:42;101488.59;;;24.05;100.00
59170;BME280;52474;52.236;5.114;2022-08-03T07:00:08;101493.81;;;26.55;100.00
59170;BME280;52474;52.236;5.114;2022-08-03T07:02:34;101487.41;;;25.01;100.00
59170;BME280;52474;52.236;5.114;2022-08-03T07:05:00;101483.16;;;23.98;100.00
59170;BME280;52474;52.236;5.114;2022-08-03T07:07:25;101479.06;;;23.68;100.00
59170;BME280;52474;52.236;5.114;2022-08-03T07:09:51;101494.91;;;24.72;100.00
59170;BME280;52474;52.236;5.114;2022-08-03T07:12:16;101470.72;;;24.31;100.00
59170;BME280;52474;52.236;5.114;2022-08-03T07:14:42;101474.41;;;26.76;100.00
59170;BME280;52474;52.236;5.114;2022-08-03T07:17:08;101493.13;;;25.44;100.00
59170;BME280;52474;52.236;5.114;2022-08-03T07:19:33;101486.72;;;29.32;100.00
59170;BME280;52474;52.236;5.114;2022-08-03T07:21:59;101483.44;;;27.88;100.00
59170;BME280;52474;52.236;5.114;2022-08-03T07:24:25;101499.41;;;28.68;100.00
59170;BME280;52474;52.236;5.114;2022-08-03T07:26:50;101501.13;;;29.57;100.00
59170;BME280;52474;52.236;5.114;2022-08-03T07:29:16;101500.22;;;31.93;95.04
59170;BME280;52474;52.236;5.114;2022-08-03T07:31:42;101493.84;;;28.21;100.00
59170;BME280;52474;52.236;5.114;2022-08-03T07:34:07;101508.19;;;25.40;100.00
59170;BME280;52474;52.236;5.114;2022-08-03T07:36:33;101500.50;;;25.17;100.00
59170;BME280;52474;52.236;5.114;2022-08-03T07:38:58;101499.91;;;26.19;100.00
59170;BME280;52474;52.236;5.114;2022-08-03T07:41:24;101510.56;;;24.57;100.00
59170;BME280;52474;52.236;5.114;2022-08-03T07:43:50;101498.94;;;26.38;100.00
59170;BME280;52474;52.236;5.114;2022-08-03T07:46:16;101515.38;;;30.95;100.00
59170;BME280;52474;52.236;5.114;2022-08-03T07:48:41;101522.34;;;30.69;98.07
59170;BME280;52474;52.236;5.114;2022-08-03T07:51:07;101510.34;;;33.26;90.17
59170;BME280;52474;52.236;5.114;2022-08-03T07:53:32;101520.03;;;34.74;75.74
59170;BME280;52474;52.236;5.114;2022-08-03T07:55:58;101528.22;;;36.29;72.41
59170;BME280;52474;52.236;5.114;2022-08-03T07:58:24;101511.22;;;34.26;80.25
59170;BME280;52474;52.236;5.114;2022-08-03T08:00:50;101527.25;;;31.40;93.37
59170;BME280;52474;52.236;5.114;2022-08-03T08:03:17;101526.34;;;34.84;79.03
59170;BME280;52474;52.236;5.114;2022-08-03T08:05:43;101518.97;;;37.51;61.94
59170;BME280;52474;52.236;5.114;2022-08-03T08:08:09;101518.25;;;37.83;59.06
59170;BME280;52474;52.236;5.114;2022-08-03T08:10:35;101525.91;;;37.72;57.21
59170;BME280;52474;52.236;5.114;2022-08-03T08:13:02;101522.47;;;37.62;57.54
59170;BME280;52474;52.236;5.114;2022-08-03T08:15:28;101519.34;;;36.67;60.16
59170;BME280;52474;52.236;5.114;2022-08-03T08:17:56;101509.59;;;37.90;57.94
59170;BME280;52474;52.236;5.114;2022-08-03T08:20:27;101518.09;;;38.50;53.69
59170;BME280;52474;52.236;5.114;2022-08-03T08:22:54;101513.38;;;34.85;64.98
59170;BME280;52474;52.236;5.114;2022-08-03T08:25:21;101520.53;;;37.38;61.35
59170;BME280;52474;52.236;5.114;2022-08-03T08:27:48;101523.56;;;34.23;70.54
59170;BME280;52474;52.236;5.114;2022-08-03T08:30:17;101525.72;;;35.23;70.61
59170;BME280;52474;52.236;5.114;2022-08-03T08:32:46;101530.56;;;36.07;66.25
59170;BME280;52474;52.236;5.114;2022-08-03T08:35:12;101520.91;;;38.78;54.01
59170;BME280;52474;52.236;5.114;2022-08-03T08:37:38;101528.69;;;39.36;49.75
59170;BME280;52474;52.236;5.114;2022-08-03T08:40:06;101506.78;;;38.93;48.21
59170;BME280;52474;52.236;5.114;2022-08-03T08:42:32;101511.47;;;38.79;48.54
59170;BME280;52474;52.236;5.114;2022-08-03T08:44:59;101521.59;;;38.37;48.22
59170;BME280;52474;52.236;5.114;2022-08-03T08:47:29;101521.06;;;38.35;50.66
59170;BME280;52474;52.236;5.114;2022-08-03T08:49:57;101520.91;;;38.78;50.01
59170;BME280;52474;52.236;5.114;2022-08-03T08:52:27;101511.53;;;38.27;53.37
59170;BME280;52474;52.236;5.114;2022-08-03T08:55:05;101526.69;;;39.23;47.55
59170;BME280;52474;52.236;5.114;2022-08-03T08:57:37;101504.25;;;38.97;45.59
59170;BME280;52474;52.236;5.114;2022-08-03T09:00:08;101523.34;;;38.65;47.60
59170;BME280;52474;52.236;5.114;2022-08-03T09:02:38;101519.34;;;38.39;48.89
59170;BME280;52474;52.236;5.114;2022-08-03T09:05:04;101509.34;;;39.03;45.94
59170;BME280;52474;52.236;5.114;2022-08-03T09:07:30;101519.03;;;39.84;46.87
59170;BME280;52474;52.236;5.114;2022-08-03T09:09:56;101513.63;;;40.46;42.96
59170;BME280;52474;52.236;5.114;2022-08-03T09:12:22;101517.94;;;40.52;43.06
59170;BME280;52474;52.236;5.114;2022-08-03T09:14:48;101516.75;;;40.76;41.78
59170;BME280;52474;52.236;5.114;2022-08-03T09:17:14;101522.72;;;40.92;42.55
59170;BME280;52474;52.236;5.114;2022-08-03T09:19:39;101514.00;;;38.94;44.45
59170;BME280;52474;52.236;5.114;2022-08-03T09:24:33;101520.44;;;39.03;44.67
59170;BME280;52474;52.236;5.114;2022-08-03T09:26:58;101526.59;;;39.00;45.67
59170;BME280;52474;52.236;5.114;2022-08-03T09:29:24;101519.44;;;39.77;45.13
59170;BME280;52474;52.236;5.114;2022-08-03T09:31:59;101501.44;;;40.56;44.46
59170;BME280;52474;52.236;5.114;2022-08-03T09:34:25;101530.31;;;39.51;42.99
59170;BME280;52474;52.236;5.114;2022-08-03T09:36:53;101530.19;;;39.28;44.29
59170;BME280;52474;52.236;5.114;2022-08-03T09:39:22;101523.47;;;39.71;42.98
59170;BME280;52474;52.236;5.114;2022-08-03T09:42:09;101508.25;;;39.04;44.39
59170;BME280;52474;52.236;5.114;2022-08-03T09:44:46;101517.22;;;37.60;47.93
59170;BME280;52474;52.236;5.114;2022-08-03T09:47:16;101518.59;;;39.26;45.46
59170;BME280;52474;52.236;5.114;2022-08-03T09:49:59;101510.25;;;37.20;50.81
59170;BME280;52474;52.236;5.114;2022-08-03T09:52:33;101519.00;;;38.46;48.11
59170;BME280;52474;52.236;5.114;2022-08-03T09:55:01;101502.25;;;38.70;46.48
59170;BME280;52474;52.236;5.114;2022-08-03T09:57:27;101521.31;;;38.38;47.04
59170;BME280;52474;52.236;5.114;2022-08-03T10:00:11;101505.34;;;38.82;47.85
59170;BME280;52474;52.236;5.114;2022-08-03T10:02:39;101508.66;;;36.26;52.41
59170;BME280;52474;52.236;5.114;2022-08-03T10:05:07;101505.03;;;36.65;52.02
59170;BME280;52474;52.236;5.114;2022-08-03T10:07:48;101519.09;;;37.65;52.29
59170;BME280;52474;52.236;5.114;2022-08-03T10:10:16;101498.81;;;38.26;49.03
59170;BME280;52474;52.236;5.114;2022-08-03T10:12:43;101520.69;;;35.41;59.74
59170;BME280;52474;52.236;5.114;2022-08-03T10:15:09;101525.34;;;37.27;53.25
59170;BME280;52474;52.236;5.114;2022-08-03T10:17:37;101517.50;;;36.86;52.51
59170;BME280;52474;52.236;5.114;2022-08-03T10:20:04;101518.63;;;38.33;50.74
59170;BME280;52474;52.236;5.114;2022-08-03T10:22:35;101512.16;;;38.05;49.14
59170;BME280;52474;52.236;5.114;2022-08-03T10:25:11;101506.78;;;38.93;50.36
59170;BME280;52474;52.236;5.114;2022-08-03T10:27:39;101504.03;;;38.47;47.44
59170;BME280;52474;52.236;5.114;2022-08-03T10:30:07;101518.66;;;38.80;47.96
59170;BME280;52474;52.236;5.114;2022-08-03T10:32:38;101499.44;;;37.23;51.53
59170;BME280;52474;52.236;5.114;2022-08-03T10:35:15;101500.09;;;37.58;52.57
59170;BME280;52474;52.236;5.114;2022-08-03T10:38:00;101497.13;;;37.92;48.84
59170;BME280;52474;52.236;5.114;2022-08-03T10:40:29;101495.09;;;38.17;47.99
59170;BME280;52474;52.236;5.114;2022-08-03T10:42:58;101511.56;;;37.89;47.97
59170;BME280;52474;52.236;5.114;2022-08-03T10:45:29;101499.34;;;37.09;49.83
59170;BME280;52474;52.236;5.114;2022-08-03T10:47:58;101506.16;;;38.17;48.93
59170;BME280;52474;52.236;5.114;2022-08-03T10:50:25;101504.50;;;38.68;48.43
59170;BME280;52474;52.236;5.114;2022-08-03T10:52:58;101504.84;;;38.47;46.73
59170;BME280;52474;52.236;5.114;2022-08-03T10:55:40;101491.91;;;37.53;49.97
59170;BME280;52474;52.236;5.114;2022-08-03T11:01:07;101496.50;;;37.95;46.87
59170;BME280;52474;52.236;5.114;2022-08-03T11:03:33;101500.75;;;38.44;48.50
59170;BME280;52474;52.236;5.114;2022-08-03T11:06:24;101499.06;;;37.92;47.04
59170;BME280;52474;52.236;5.114;2022-08-03T11:11:39;101491.59;;;36.82;49.86
59170;BME280;52474;52.236;5.114;2022-08-03T11:14:16;101477.06;;;37.44;48.87
59170;BME280;52474;52.236;5.114;2022-08-03T11:16:48;101480.56;;;37.54;48.83
59170;BME280;52474;52.236;5.114;2022-08-03T11:19:17;101486.94;;;38.26;48.68
59170;BME280;52474;52.236;5.114;2022-08-03T11:32:49;101479.97;;;37.33;49.18
59170;BME280;52474;52.236;5.114;2022-08-03T11:38:06;101492.59;;;38.67;47.41
59170;BME280;52474;52.236;5.114;2022-08-03T11:40:46;101500.31;;;39.25;43.86
59170;BME280;52474;52.236;5.114;2022-08-03T11:46:06;101484.13;;;39.19;44.01
59170;BME280;52474;52.236;5.114;2022-08-03T11:51:02;101487.81;;;37.02;48.76
59170;BME280;52474;52.236;5.114;2022-08-03T11:53:28;101476.00;;;37.64;46.14
59170;BME280;52474;52.236;5.114;2022-08-03T11:55:58;101480.47;;;38.16;44.80
59170;BME280;52474;52.236;5.114;2022-08-03T11:58:23;101488.59;;;38.73;44.98
59170;BME280;52474;52.236;5.114;2022-08-03T12:00:49;101484.72;;;37.71;43.81
59170;BME280;52474;52.236;5.114;2022-08-03T12:03:17;101466.53;;;37.27;44.05
59170;BME280;52474;52.236;5.114;2022-08-03T12:05:51;101469.81;;;37.29;44.76
59170;BME280;52474;52.236;5.114;2022-08-03T12:10:53;101489.19;;;37.05;44.26
59170;BME280;52474;52.236;5.114;2022-08-03T12:13:20;101486.56;;;37.37;44.36
59170;BME280;52474;52.236;5.114;2022-08-03T12:15:55;101489.69;;;37.50;45.76
59170;BME280;52474;52.236;5.114;2022-08-03T12:18:21;101479.13;;;36.61;44.75
59170;BME280;52474;52.236;5.114;2022-08-03T12:20:49;101479.78;;;36.13;47.94
59170;BME280;52474;52.236;5.114;2022-08-03T12:23:15;101487.59;;;36.35;46.76
59170;BME280;52474;52.236;5.114;2022-08-03T12:25:43;101479.03;;;35.58;51.47
59170;BME280;52474;52.236;5.114;2022-08-03T12:28:19;101469.13;;;34.05;55.40
59170;BME280;52474;52.236;5.114;2022-08-03T12:30:49;101476.81;;;34.79;52.62
59170;BME280;52474;52.236;5.114;2022-08-03T12:35:49;101457.56;;;35.55;50.00
59170;BME280;52474;52.236;5.114;2022-08-03T12:38:20;101459.75;;;35.53;48.76
59170;BME280;52474;52.236;5.114;2022-08-03T12:41:01;101476.81;;;34.79;53.08
59170;BME280;52474;52.236;5.114;2022-08-03T12:43:27;101467.69;;;34.94;55.77
59170;BME280;52474;52.236;5.114;2022-08-03T12:46:13;101471.75;;;35.22;55.20
59170;BME280;52474;52.236;5.114;2022-08-03T12:49:05;101468.16;;;35.32;52.48
59170;BME280;52474;52.236;5.114;2022-08-03T12:51:55;101468.28;;;35.61;52.39
59170;BME280;52474;52.236;5.114;2022-08-03T12:54:21;101477.66;;;34.65;53.67
59170;BME280;52474;52.236;5.114;2022-08-03T12:59:26;101471.06;;;34.35;61.98
59170;BME280;52474;52.236;5.114;2022-08-03T13:01:52;101457.53;;;34.84;59.27
59170;BME280;52474;52.236;5.114;2022-08-03T13:04:31;101471.09;;;34.66;57.29
59170;BME280;52474;52.236;5.114;2022-08-03T13:07:02;101462.56;;;34.36;62.21
59170;BME280;52474;52.236;5.114;2022-08-03T13:09:29;101471.56;;;34.78;62.94
59170;BME280;52474;52.236;5.114;2022-08-03T13:12:24;101450.69;;;33.85;63.11
59170;BME280;52474;52.236;5.114;2022-08-03T13:15:00;101464.09;;;33.55;67.77
59170;BME280;52474;52.236;5.114;2022-08-03T13:17:26;101447.53;;;33.40;68.21
59170;BME280;52474;52.236;5.114;2022-08-03T13:19:52;101459.72;;;33.65;71.42
59170;BME280;52474;52.236;5.114;2022-08-03T13:22:20;101446.00;;;33.70;70.24
59170;BME280;52474;52.236;5.114;2022-08-03T13:24:48;101452.75;;;33.42;71.23
59170;BME280;52474;52.236;5.114;2022-08-03T13:27:15;101463.50;;;33.53;71.86
59170;BME280;52474;52.236;5.114;2022-08-03T13:29:41;101459.75;;;34.06;74.01
59170;BME280;52474;52.236;5.114;2022-08-03T13:32:08;101464.75;;;34.09;71.65
59170;BME280;52474;52.236;5.114;2022-08-03T13:34:34;101455.03;;;33.60;71.51
59170;BME280;52474;52.236;5.114;2022-08-03T13:37:00;101459.78;;;34.21;70.87
59170;BME280;52474;52.236;5.114;2022-08-03T13:39:26;101462.53;;;34.16;73.13